MST,Max TemperatureF,Mean TemperatureF,Min TemperatureF,Max Dew PointF,MeanDew PointF,Min DewpointF,Max Humidity, Mean Humidity, Min Humidity, Max Sea Level PressureIn, Mean Sea Level PressureIn, Min Sea Level PressureIn, Max VisibilityMiles, Mean VisibilityMiles, Min VisibilityMiles, Max Wind SpeedMPH, Mean Wind SpeedMPH, Max Gust SpeedMPH,PrecipitationIn, CloudCover, Events, WindDirDegrees
2013-2-1,43,32,20,23,17,14,74,53,32,30.20,30.10,29.99,10,10,9,40,17,52,T,2,,286
2013-2-2,49,34,19,17,11,5,68,43,17,30.38,30.27,30.18,10,10,10,37,13,44,0.00,0,,295
2013-2-3,51,36,21,12,4,-6,62,36,10,30.21,30.03,29.89,10,10,10,28,10,35,0.00,0,,261
2013-2-4,50,36,21,14,8,4,45,31,16,29.98,29.90,29.81,10,10,10,37,15,46,0.00,1,,284
2013-2-5,48,36,23,18,15,12,60,42,23,30.04,29.92,29.80,10,10,10,23,9,33,0.00,1,,246
2013-2-6,47,36,24,22,17,9,81,53,25,30.09,29.85,29.73,10,10,10,24,13,35,0.00,4,,305
2013-2-7,44,30,15,18,11,3,88,54,19,30.22,30.14,30.06,10,10,10,17,9,22,0.00,0,,223
2013-2-8,48,32,16,13,8,-2,67,42,17,30.04,29.88,29.71,10,10,10,16,7,21,0.00,0,,343
2013-2-9,32,26,20,23,19,11,92,69,46,29.76,29.61,29.50,10,6,0,26,15,35,0.14,6,Fog-Snow,357
2013-2-10,24,15,5,18,14,3,92,76,60,30.19,29.80,29.54,10,5,0,30,15,37,0.05,6,Fog-Snow,340
2013-2-11,24,12,-1,13,4,-5,88,73,58,30.27,30.20,30.14,10,10,10,20,6,24,0.00,0,,244
2013-2-12,31,23,14,11,4,-3,59,47,34,30.20,30.14,30.09,10,10,10,31,16,37,0.00,2,,305
2013-2-13,39,31,23,18,14,9,63,50,37,30.06,30.01,29.94,10,10,10,32,16,51,0.00,0,,296
2013-2-14,31,24,16,19,13,8,80,65,49,30.40,30.20,30.01,10,7,0,32,12,41,0.01,7,Fog-Snow,351
2013-2-15,30,22,14,17,12,9,80,65,50,30.41,30.34,30.20,10,9,2,37,13,51,T,6,Snow,316
2013-2-16,49,38,26,16,12,7,50,37,23,30.26,30.09,29.89,10,10,10,29,15,39,0.00,1,,299
2013-2-17,53,38,23,21,8,-6,81,45,9,29.86,29.71,29.54,10,9,2,37,18,47,T,2,Snow,286
2013-2-18,31,21,10,18,12,4,84,58,31,30.19,30.01,29.75,10,9,1,31,13,40,T,4,Snow,322
2013-2-19,38,24,10,14,10,5,88,59,29,30.17,30.04,29.90,10,10,10,20,11,26,0.00,0,,189
2013-2-20,34,24,15,21,15,10,100,73,45,29.89,29.73,29.61,10,6,0,18,11,24,0.01,6,Fog-Snow,154
2013-2-21,21,15,9,16,12,6,92,82,71,29.99,29.80,29.64,10,4,1,24,10,31,0.07,7,Snow,13
2013-2-22,30,18,5,14,7,1,83,63,42,30.06,29.99,29.78,10,10,10,23,12,30,0.00,3,,294
2013-2-23,39,30,20,25,15,3,92,62,32,29.87,29.73,29.65,10,6,0,24,10,29,0.09,5,Fog-Snow,245
2013-2-24,26,20,13,23,18,9,88,83,77,30.20,29.89,29.69,10,4,0,29,17,38,0.18,8,Fog-Snow,355
2013-2-25,33,17,0,19,8,-4,87,63,39,30.25,30.07,29.88,10,10,10,14,7,17,0.00,0,,241
2013-2-26,27,22,16,20,17,8,84,73,62,30.23,29.93,29.76,10,3,1,31,16,43,0.13,8,Snow,332
2013-2-27,28,21,14,12,8,1,67,55,42,30.40,30.26,30.07,10,10,10,28,14,35,0.00,2,,310
2013-2-28,35,24,13,14,9,1,60,48,36,30.37,30.28,30.14,10,10,10,28,16,38,0.00,1,,307